createdAt,value
2018-10-11T00:00:31.347Z,100099.23
2018-10-11T00:02:59.472Z,100100.20
2018-10-11T00:05:27.595Z,100096.91
2018-10-11T00:07:55.719Z,100102.55
2018-10-11T00:10:23.845Z,100103.34
2018-10-11T00:12:52.029Z,100095.17
2018-10-11T00:15:20.151Z,100102.17
2018-10-11T00:17:48.265Z,100103.05
2018-10-11T00:20:16.423Z,100103.62
2018-10-11T00:22:44.539Z,100110.12
2018-10-11T00:25:12.654Z,100104.11
2018-10-11T00:27:40.779Z,100108.80
2018-10-11T00:30:09.003Z,100104.19
2018-10-11T00:32:37.286Z,100103.53
2018-10-11T00:35:05.523Z,100101.69
2018-10-11T00:37:33.741Z,100108.80
2018-10-11T00:40:01.866Z,100096.70
2018-10-11T00:42:29.982Z,100102.55
2018-10-11T00:44:58.095Z,100099.43
2018-10-11T00:47:26.223Z,100098.28
2018-10-11T00:49:54.354Z,100098.37
2018-10-11T00:52:22.621Z,100097.28
2018-10-11T00:54:50.739Z,100101.58
2018-10-11T00:57:18.827Z,100099.64
2018-10-11T00:59:46.944Z,100093.39
2018-10-11T01:02:15.067Z,100090.88
2018-10-11T01:04:43.191Z,100086.16
2018-10-11T01:07:11.323Z,100075.84
2018-10-11T01:09:39.442Z,100078.77
2018-10-11T01:12:07.745Z,100067.47
2018-10-11T01:14:35.863Z,100071.55
2018-10-11T01:17:04.019Z,100065.36
2018-10-11T01:19:32.175Z,100067.86
2018-10-11T01:22:00.262Z,100065.44
2018-10-11T01:24:28.376Z,100066.72
2018-10-11T01:26:56.529Z,100065.55
2018-10-11T01:29:24.651Z,100067.97
2018-10-11T01:31:52.775Z,100067.19
2018-10-11T01:34:20.856Z,100065.17
2018-10-11T01:36:48.995Z,100060.39
2018-10-11T01:39:17.113Z,100052.83
2018-10-11T01:41:45.227Z,100064.22
2018-10-11T01:44:13.434Z,100053.50
2018-10-11T01:46:41.555Z,100052.81
2018-10-11T01:49:09.677Z,100053.13
2018-10-11T01:51:37.795Z,100045.14
2018-10-11T01:54:06.046Z,100034.84
2018-10-11T01:56:34.222Z,100034.63
2018-10-11T01:59:02.284Z,100037.19
2018-10-11T02:01:30.407Z,100032.89
2018-10-11T02:03:58.532Z,100033.77
2018-10-11T02:06:26.900Z,100031.27
2018-10-11T02:08:55.070Z,100029.12
2018-10-11T02:11:23.189Z,100027.75
2018-10-11T02:13:51.307Z,100021.61
2018-10-11T02:16:19.425Z,100023.37
2018-10-11T02:18:47.547Z,100020.25
2018-10-11T02:21:15.650Z,100022.71
2018-10-11T02:23:43.765Z,100028.43
2018-10-11T02:26:11.883Z,100021.05
2018-10-11T02:28:40.021Z,100025.23
2018-10-11T02:31:08.375Z,100021.55
2018-10-11T02:33:36.462Z,100023.00
2018-10-11T02:36:04.563Z,100025.99
2018-10-11T02:41:00.774Z,100026.84
2018-10-11T02:43:28.880Z,100031.13
2018-10-11T02:45:56.993Z,100028.02
2018-10-11T02:48:25.096Z,100020.73
2018-10-11T02:50:53.203Z,100031.13
2018-10-11T02:53:21.323Z,100029.38
2018-10-11T02:55:49.438Z,100029.56
2018-10-11T02:58:29.062Z,100024.20
2018-10-11T03:00:57.175Z,100028.77
2018-10-11T03:03:27.324Z,100037.33
2018-10-11T03:05:55.442Z,100030.73
2018-10-11T03:08:25.509Z,100032.75
2018-10-11T03:10:53.636Z,100035.26
2018-10-11T03:13:21.756Z,100036.92
2018-10-11T03:15:49.885Z,100032.26
2018-10-11T03:18:18.176Z,100039.23
2018-10-11T03:20:46.294Z,100040.77
2018-10-11T03:23:14.970Z,100045.62
2018-10-11T03:25:44.277Z,100045.80
2018-10-11T03:28:13.997Z,100046.97
2018-10-11T03:30:42.571Z,100053.06
2018-10-11T03:33:11.352Z,100056.07
2018-10-11T03:35:39.947Z,100053.13
2018-10-11T03:38:08.063Z,100059.73
2018-10-11T03:40:36.186Z,100053.98
2018-10-11T03:43:04.299Z,100048.52
2018-10-11T03:45:32.434Z,100051.41
2018-10-11T03:48:00.707Z,100049.77
2018-10-11T03:50:28.907Z,100052.97
2018-10-11T03:52:57.980Z,100042.34
2018-10-11T03:55:26.276Z,100045.75
2018-10-11T03:57:54.394Z,100041.92
2018-10-11T04:00:22.506Z,100047.00
2018-10-11T04:02:50.638Z,100042.52
2018-10-11T04:05:18.813Z,100049.11
2018-10-11T04:07:46.945Z,100046.80
2018-10-11T04:10:15.016Z,100052.23
2018-10-11T04:12:43.103Z,100051.83
2018-10-11T04:15:11.311Z,100053.08
2018-10-11T04:17:39.389Z,100042.52
2018-10-11T04:20:07.460Z,100041.92
2018-10-11T04:22:35.536Z,100043.99
2018-10-11T04:25:03.602Z,100046.06
2018-10-11T04:27:31.678Z,100044.25
2018-10-11T04:29:59.870Z,100045.21
2018-10-11T04:32:27.924Z,100055.60
2018-10-11T04:34:55.995Z,100053.28
2018-10-11T04:37:24.079Z,100052.09
2018-10-11T04:39:52.185Z,100046.26
2018-10-11T04:42:20.283Z,100049.38
2018-10-11T04:44:48.354Z,100049.45
2018-10-11T04:47:16.515Z,100048.18
2018-10-11T04:49:44.590Z,100052.17
2018-10-11T04:52:12.670Z,100054.81
2018-10-11T04:54:40.743Z,100054.41
2018-10-11T04:57:08.912Z,100055.34
2018-10-11T04:59:37.008Z,100057.47
2018-10-11T05:02:05.063Z,100053.00
2018-10-11T05:04:33.134Z,100059.95
2018-10-11T05:07:01.294Z,100064.79
2018-10-11T05:09:29.393Z,100074.06
2018-10-11T05:11:57.475Z,100076.98
2018-10-11T05:14:25.563Z,100075.78
2018-10-11T05:16:53.640Z,100073.16
2018-10-11T05:19:21.735Z,100080.91
2018-10-11T05:21:49.822Z,100076.11
2018-10-11T05:24:17.918Z,100067.25
2018-10-11T05:26:46.000Z,100080.43
2018-10-11T05:29:14.162Z,100081.50
2018-10-11T05:31:42.252Z,100087.17
2018-10-11T05:34:10.353Z,100080.18
2018-10-11T05:36:38.608Z,100086.17
2018-10-11T05:39:07.756Z,100092.88
2018-10-11T05:41:36.088Z,100091.60
2018-10-11T05:44:04.225Z,100094.47
2018-10-11T05:46:33.428Z,100093.23
2018-10-11T05:49:02.794Z,100096.42
2018-10-11T05:51:31.567Z,100094.95
2018-10-11T05:54:00.469Z,100096.71
2018-10-11T05:56:30.103Z,100097.98
2018-10-11T05:58:58.972Z,100092.61
2018-10-11T06:01:27.068Z,100089.05
2018-10-11T06:03:56.030Z,100087.34
2018-10-11T06:06:24.126Z,100085.09
2018-10-11T06:08:53.004Z,100083.26
2018-10-11T06:11:21.067Z,100078.59
2018-10-11T06:13:49.148Z,100081.14
2018-10-11T06:16:17.219Z,100081.47
2018-10-11T06:18:45.796Z,100098.16
2018-10-11T06:21:14.216Z,100091.53
2018-10-11T06:23:42.452Z,100099.00
2018-10-11T06:26:10.834Z,100107.63
2018-10-11T06:28:38.943Z,100112.34
2018-10-11T06:31:07.035Z,100116.14
2018-10-11T06:33:35.143Z,100119.50
2018-10-11T06:36:03.316Z,100126.02
2018-10-11T06:38:31.471Z,100123.13
2018-10-11T06:40:59.583Z,100119.94
2018-10-11T06:43:27.691Z,100122.53
2018-10-11T06:45:55.837Z,100126.61
2018-10-11T06:48:23.910Z,100124.49
2018-10-11T06:50:51.989Z,100130.48
2018-10-11T06:53:20.070Z,100126.97
2018-10-11T06:55:48.205Z,100126.58
2018-10-11T06:58:16.223Z,100122.50
2018-10-11T07:00:44.560Z,100123.22
2018-10-11T07:03:12.579Z,100122.45
2018-10-11T07:05:40.683Z,100112.77
2018-10-11T07:08:08.912Z,100122.72
2018-10-11T07:10:37.007Z,100133.31
2018-10-11T07:13:05.193Z,100143.06
2018-10-11T07:15:33.288Z,100147.17
2018-10-11T07:18:01.375Z,100147.38
2018-10-11T07:20:29.470Z,100142.56
2018-10-11T07:22:57.547Z,100141.22
2018-10-11T07:25:25.675Z,100149.80
2018-10-11T07:27:53.719Z,100156.46
2018-10-11T07:30:21.814Z,100162.33
2018-10-11T07:32:49.901Z,100162.52
2018-10-11T07:35:18.111Z,100173.42
2018-10-11T07:37:46.085Z,100179.48
2018-10-11T07:40:14.188Z,100188.66
2018-10-11T07:42:42.260Z,100183.23
2018-10-11T07:45:10.607Z,100191.02
2018-10-11T07:47:38.702Z,100192.39
2018-10-11T07:50:07.218Z,100189.11
2018-10-11T07:52:35.315Z,100187.76
2018-10-11T07:55:03.401Z,100186.13
2018-10-11T07:57:31.495Z,100191.98
2018-10-11T07:59:59.579Z,100200.63
2018-10-11T08:02:27.675Z,100202.00
2018-10-11T08:04:55.768Z,100194.22
2018-10-11T08:07:23.993Z,100195.97
2018-10-11T08:09:52.121Z,100192.36
2018-10-11T08:12:20.214Z,100188.26
2018-10-11T08:14:48.300Z,100180.59
2018-10-11T08:17:16.737Z,100182.33
2018-10-11T08:19:44.545Z,100178.52
2018-10-11T08:22:12.563Z,100174.93
2018-10-11T08:24:40.804Z,100180.63
2018-10-11T08:27:08.782Z,100175.67
2018-10-11T08:29:36.866Z,100177.48
2018-10-11T08:32:04.992Z,100183.41
2018-10-11T08:34:33.043Z,100187.08
2018-10-11T08:37:01.135Z,100201.70
2018-10-11T08:39:29.212Z,100200.70
2018-10-11T08:41:57.316Z,100204.38
2018-10-11T08:44:25.407Z,100198.88
2018-10-11T08:46:53.587Z,100188.89
2018-10-11T08:49:21.665Z,100188.86
2018-10-11T08:51:49.743Z,100187.73
2018-10-11T08:54:23.160Z,100193.05
2018-10-11T08:56:51.441Z,100193.72
2018-10-11T08:59:19.618Z,100191.14
2018-10-11T09:01:47.714Z,100189.23
2018-10-11T09:04:15.904Z,100186.34
2018-10-11T09:06:43.919Z,100181.70
2018-10-11T09:09:12.020Z,100182.27
2018-10-11T09:11:40.093Z,100178.31
2018-10-11T09:14:08.928Z,100182.34
2018-10-11T09:16:36.996Z,100171.73
2018-10-11T09:19:05.095Z,100175.41
2018-10-11T09:21:33.293Z,100169.88
2018-10-11T09:24:01.384Z,100173.31
2018-10-11T09:26:29.456Z,100175.48
2018-10-11T09:28:57.559Z,100169.83
2018-10-11T09:31:25.759Z,100163.48
2018-10-11T09:33:53.906Z,100166.36
2018-10-11T09:36:22.092Z,100169.14
2018-10-11T09:38:50.736Z,100162.70
2018-10-11T09:41:18.859Z,100157.02
2018-10-11T09:43:46.957Z,100170.28
2018-10-11T09:46:15.244Z,100157.98
2018-10-11T09:48:43.583Z,100162.48
2018-10-11T09:51:12.320Z,100161.12
2018-10-11T09:53:40.792Z,100155.21
2018-10-11T09:56:08.875Z,100149.73
2018-10-11T09:58:36.985Z,100153.52
2018-10-11T10:01:10.394Z,100150.89
2018-10-11T10:03:38.477Z,100150.66
2018-10-11T10:06:06.574Z,100155.69
2018-10-11T10:08:34.655Z,100159.20
2018-10-11T10:11:02.757Z,100158.59
2018-10-11T10:13:30.827Z,100155.50
2018-10-11T10:15:58.929Z,100150.39
2018-10-11T10:18:27.004Z,100147.30
2018-10-11T10:20:55.099Z,100147.79
2018-10-11T10:23:23.164Z,100142.33
2018-10-11T10:25:51.238Z,100144.19
2018-10-11T10:28:19.308Z,100140.44
2018-10-11T10:30:49.287Z,100139.20
2018-10-11T10:33:17.490Z,100133.47
2018-10-11T10:35:45.583Z,100137.08
2018-10-11T10:38:13.655Z,100132.73
2018-10-11T10:40:41.764Z,100139.58
2018-10-11T10:43:10.195Z,100132.95
2018-10-11T10:45:38.277Z,100133.06
2018-10-11T10:48:06.351Z,100136.30
2018-10-11T10:50:34.438Z,100124.94
2018-10-11T10:53:02.727Z,100128.53
2018-10-11T10:55:30.822Z,100127.35
2018-10-11T10:57:58.907Z,100123.73
2018-10-11T11:00:26.982Z,100117.20
2018-10-11T11:02:55.068Z,100126.66
2018-10-11T11:05:23.146Z,100120.55
2018-10-11T11:07:51.280Z,100118.26
2018-10-11T11:10:19.330Z,100124.12
2018-10-11T11:12:47.420Z,100122.83
2018-10-11T11:15:15.526Z,100126.78
2018-10-11T11:17:43.618Z,100123.15
2018-10-11T11:20:11.729Z,100113.11
2018-10-11T11:22:39.825Z,100106.77
2018-10-11T11:25:07.971Z,100109.75
2018-10-11T11:27:36.015Z,100106.88
2018-10-11T11:30:04.145Z,100108.14
2018-10-11T11:32:32.237Z,100106.77
2018-10-11T11:35:00.323Z,100108.97
2018-10-11T11:37:28.431Z,100106.48
2018-10-11T11:39:56.567Z,100101.13
2018-10-11T11:42:24.642Z,100092.25
2018-10-11T11:44:52.738Z,100089.42
2018-10-11T11:47:20.828Z,100085.23
2018-10-11T11:49:48.919Z,100084.02
2018-10-11T11:52:17.012Z,100085.77
2018-10-11T11:54:45.104Z,100079.25
2018-10-11T11:57:13.188Z,100072.80
2018-10-11T11:59:41.281Z,100077.09
2018-10-11T12:02:09.419Z,100083.71
2018-10-11T12:04:37.462Z,100074.34
2018-10-11T12:07:05.572Z,100078.41
2018-10-11T12:09:33.668Z,100079.00
2018-10-11T12:12:01.756Z,100074.66
2018-10-11T12:14:29.926Z,100076.12
2018-10-11T12:16:58.008Z,100079.81
2018-10-11T12:19:26.108Z,100068.48
2018-10-11T12:21:54.225Z,100067.89
2018-10-11T12:24:22.317Z,100068.98
2018-10-11T12:26:50.402Z,100069.64
2018-10-11T12:29:18.505Z,100073.04
2018-10-11T12:31:46.583Z,100064.04
2018-10-11T12:34:14.667Z,100065.14
2018-10-11T12:36:42.768Z,100065.64
2018-10-11T12:39:10.854Z,100066.52
2018-10-11T12:41:38.953Z,100064.18
2018-10-11T12:44:07.037Z,100060.41
2018-10-11T12:46:35.371Z,100059.02
2018-10-11T12:49:03.217Z,100064.22
2018-10-11T12:51:31.450Z,100052.03
2018-10-11T12:53:59.494Z,100062.83
2018-10-11T12:56:27.664Z,100057.67
2018-10-11T12:58:55.701Z,100057.24
2018-10-11T13:01:24.258Z,100056.05
2018-10-11T13:03:51.883Z,100058.90
2018-10-11T13:06:19.986Z,100060.93
2018-10-11T13:08:48.080Z,100063.08
2018-10-11T13:11:16.189Z,100071.21
2018-10-11T13:13:47.862Z,100071.06
2018-10-11T13:16:12.371Z,100066.75
2018-10-11T13:18:40.547Z,100071.99
2018-10-11T13:21:08.715Z,100076.09
2018-10-11T13:23:36.799Z,100074.81
2018-10-11T13:26:04.901Z,100069.30
2018-10-11T13:28:32.978Z,100076.64
2018-10-11T13:31:01.072Z,100075.08
2018-10-11T13:33:29.170Z,100075.80
2018-10-11T13:35:57.244Z,100073.59
2018-10-11T13:38:25.427Z,100074.46
2018-10-11T13:40:56.894Z,100070.47
2018-10-11T13:43:21.645Z,100075.98
2018-10-11T13:45:52.471Z,100079.25
2018-10-11T13:48:18.128Z,100075.83
2018-10-11T13:50:46.886Z,100073.46
2018-10-11T13:53:19.456Z,100072.01
2018-10-11T13:55:48.706Z,100067.46
2018-10-11T13:58:11.181Z,100068.84
2018-10-11T14:00:39.263Z,100073.47
2018-10-11T14:03:07.593Z,100073.36
2018-10-11T14:05:35.687Z,100068.61
2018-10-11T14:08:03.786Z,100070.51
2018-10-11T14:10:31.924Z,100065.96
2018-10-11T14:12:59.967Z,100071.37
2018-10-11T14:15:28.046Z,100068.48
2018-10-11T14:17:58.680Z,100072.45
2018-10-11T14:20:24.495Z,100070.23
2018-10-11T14:22:52.582Z,100075.98
2018-10-11T14:25:20.708Z,100077.58
2018-10-11T14:27:48.805Z,100074.68
2018-10-11T14:30:16.884Z,100079.44
2018-10-11T14:32:45.028Z,100074.37
2018-10-11T14:35:13.321Z,100072.38
2018-10-11T14:37:41.498Z,100074.42
2018-10-11T14:40:09.652Z,100072.75
2018-10-11T14:42:37.731Z,100067.26
2018-10-11T14:45:06.302Z,100069.64
2018-10-11T14:47:34.479Z,100069.98
2018-10-11T14:50:02.571Z,100071.77
2018-10-11T14:52:30.656Z,100074.72
2018-10-11T14:54:58.813Z,100075.98
2018-10-11T14:57:27.029Z,100072.92
2018-10-11T14:59:55.066Z,100078.98
2018-10-11T15:02:23.155Z,100074.63
2018-10-11T15:04:51.242Z,100074.23
2018-10-11T15:07:19.323Z,100071.92
2018-10-11T15:09:47.409Z,100077.59
2018-10-11T15:12:15.474Z,100074.70
2018-10-11T15:14:43.623Z,100072.45
2018-10-11T15:17:11.697Z,100075.57
2018-10-11T15:19:39.810Z,100077.31
2018-10-11T15:22:07.886Z,100073.12
2018-10-11T15:24:36.171Z,100087.76
2018-10-11T15:27:04.401Z,100082.02
2018-10-11T15:29:32.593Z,100084.45
2018-10-11T15:32:00.688Z,100074.58
2018-10-11T15:34:28.767Z,100081.91
2018-10-11T15:36:56.939Z,100083.50
2018-10-11T15:39:25.024Z,100084.64
2018-10-11T15:41:53.094Z,100087.38
2018-10-11T15:44:21.171Z,100083.18
2018-10-11T15:46:49.413Z,100088.52
2018-10-11T15:49:17.457Z,100093.22
2018-10-11T15:51:45.529Z,100093.92
2018-10-11T15:54:13.607Z,100098.37
2018-10-11T15:56:41.724Z,100097.91
2018-10-11T15:59:09.791Z,100095.72
2018-10-11T16:01:37.982Z,100102.99
2018-10-11T16:04:06.050Z,100098.02
2018-10-11T16:06:34.133Z,100103.08
2018-10-11T16:09:02.312Z,100108.13
2018-10-11T16:11:30.460Z,100111.27
2018-10-11T16:13:58.539Z,100110.95
2018-10-11T16:16:26.618Z,100122.50
2018-10-11T16:18:54.696Z,100119.42
2018-10-11T16:21:22.794Z,100111.31
2018-10-11T16:23:50.876Z,100117.36
2018-10-11T16:26:18.962Z,100125.78
2018-10-11T16:28:47.036Z,100126.33
2018-10-11T16:31:15.121Z,100126.86
2018-10-11T16:33:43.243Z,100121.50
2018-10-11T16:36:11.321Z,100126.13
2018-10-11T16:38:39.392Z,100129.41
2018-10-11T16:41:07.475Z,100127.91
2018-10-11T16:43:35.543Z,100126.48
2018-10-11T16:46:03.615Z,100128.00
2018-10-11T16:48:31.706Z,100131.52
2018-10-11T16:50:59.774Z,100142.27
2018-10-11T16:53:27.855Z,100142.32
2018-10-11T16:55:55.956Z,100146.33
2018-10-11T16:58:24.047Z,100147.95
2018-10-11T17:00:52.175Z,100151.53
2018-10-11T17:03:20.567Z,100155.91
2018-10-11T17:05:48.705Z,100163.88
2018-10-11T17:08:16.813Z,100165.38
2018-10-11T17:10:44.976Z,100169.12
2018-10-11T17:13:13.074Z,100161.77
2018-10-11T17:15:41.159Z,100167.61
2018-10-11T17:18:09.262Z,100168.37
2018-10-11T17:20:37.356Z,100176.06
2018-10-11T17:23:05.668Z,100179.56
2018-10-11T17:25:33.755Z,100186.65
2018-10-11T17:28:01.874Z,100184.28
2018-10-11T17:30:29.976Z,100186.50
2018-10-11T17:32:58.060Z,100188.48
2018-10-11T17:35:26.429Z,100188.73
2018-10-11T17:37:54.588Z,100187.86
2018-10-11T17:40:22.873Z,100191.20
2018-10-11T17:42:51.023Z,100192.08
2018-10-11T17:45:19.111Z,100188.80
2018-10-11T17:47:47.196Z,100195.30
2018-10-11T17:50:15.354Z,100192.38
2018-10-11T17:52:43.416Z,100193.36
2018-10-11T17:55:11.518Z,100192.00
2018-10-11T17:57:39.605Z,100194.24
2018-10-11T18:00:07.905Z,100195.61
2018-10-11T18:02:35.990Z,100201.36
2018-10-11T18:05:04.180Z,100198.62
2018-10-11T18:07:32.279Z,100203.37
2018-10-11T18:10:00.405Z,100207.98
2018-10-11T18:12:28.445Z,100213.95
2018-10-11T18:14:56.555Z,100215.44
2018-10-11T18:17:24.623Z,100222.79
2018-10-11T18:19:52.727Z,100216.05
2018-10-11T18:22:20.771Z,100222.13
2018-10-11T18:24:48.859Z,100222.02
2018-10-11T18:27:17.859Z,100228.49
2018-10-11T18:29:45.936Z,100228.60
2018-10-11T18:32:14.008Z,100235.45
2018-10-11T18:34:42.092Z,100241.42
2018-10-11T18:37:10.170Z,100241.92
2018-10-11T18:39:38.250Z,100244.66
2018-10-11T18:42:06.320Z,100243.67
2018-10-11T18:44:34.466Z,100240.82
2018-10-11T18:47:02.478Z,100248.55
2018-10-11T18:49:30.560Z,100246.58
2018-10-11T18:51:58.656Z,100243.34
2018-10-11T18:54:26.728Z,100244.71
2018-10-11T18:56:54.810Z,100253.80
2018-10-11T18:59:22.875Z,100251.56
2018-10-11T19:01:50.959Z,100245.09
2018-10-11T19:04:19.031Z,100250.46
2018-10-11T19:06:47.128Z,100250.46
2018-10-11T19:09:15.265Z,100252.21
2018-10-11T19:11:43.344Z,100253.09
2018-10-11T19:14:11.488Z,100254.22
2018-10-11T19:16:39.565Z,100252.93
2018-10-11T19:19:07.644Z,100255.78
2018-10-11T19:21:35.743Z,100256.00
2018-10-11T19:24:03.811Z,100253.52
2018-10-11T19:26:31.888Z,100258.45
2018-10-11T19:28:59.955Z,100259.44
2018-10-11T19:31:28.042Z,100261.69
2018-10-11T19:33:56.115Z,100249.36
2018-10-11T19:36:24.326Z,100247.11
2018-10-11T19:38:52.407Z,100249.12
2018-10-11T19:41:20.493Z,100246.00
2018-10-11T19:43:48.591Z,100240.24
2018-10-11T19:46:16.674Z,100240.36
2018-10-11T19:48:44.743Z,100242.71
2018-10-11T19:51:12.842Z,100243.97
2018-10-11T19:53:40.917Z,100249.72
2018-10-11T19:56:09.026Z,100250.11
2018-10-11T19:58:37.073Z,100248.36
2018-10-11T20:01:05.198Z,100244.52
2018-10-11T20:03:33.275Z,100246.33
2018-10-11T20:06:01.392Z,100251.95
2018-10-11T20:08:29.585Z,100248.34
2018-10-11T20:10:57.674Z,100245.10
2018-10-11T20:13:25.795Z,100255.67
2018-10-11T20:15:53.998Z,100256.41
2018-10-11T20:18:22.120Z,100255.80
2018-10-11T20:20:50.190Z,100258.05
2018-10-11T20:23:18.291Z,100252.19
2018-10-11T20:25:46.397Z,100255.80
2018-10-11T20:28:14.480Z,100259.53
2018-10-11T20:30:42.510Z,100266.38
2018-10-11T20:33:10.691Z,100266.38
2018-10-11T20:35:38.831Z,100267.86
2018-10-11T20:38:07.014Z,100260.66
2018-10-11T20:40:35.081Z,100259.30
2018-10-11T20:43:03.160Z,100266.14
2018-10-11T20:45:31.329Z,100262.52
2018-10-11T20:47:59.435Z,100272.11
2018-10-11T20:50:27.590Z,100270.36
2018-10-11T20:52:55.943Z,100277.81
2018-10-11T20:55:24.012Z,100283.39
2018-10-11T20:57:52.099Z,100282.52
2018-10-11T21:00:20.198Z,100285.75
2018-10-11T21:02:48.276Z,100293.58
2018-10-11T21:05:16.424Z,100299.83
2018-10-11T21:07:44.569Z,100290.50
2018-10-11T21:10:12.684Z,100292.85
2018-10-11T21:12:40.781Z,100301.17
2018-10-11T21:15:08.880Z,100294.05
2018-10-11T21:17:36.979Z,100305.36
2018-10-11T21:20:05.253Z,100305.19
2018-10-11T21:22:33.255Z,100311.30
2018-10-11T21:25:01.371Z,100313.66
2018-10-11T21:27:29.470Z,100324.22
2018-10-11T21:29:57.560Z,100324.33
2018-10-11T21:32:25.797Z,100328.54
2018-10-11T21:34:53.960Z,100319.55
2018-10-11T21:37:22.258Z,100315.45
2018-10-11T21:39:50.351Z,100318.33
2018-10-11T21:42:18.433Z,100321.06
2018-10-11T21:44:46.528Z,100321.06
2018-10-11T21:47:14.613Z,100325.03
2018-10-11T21:49:42.772Z,100321.80
2018-10-11T21:52:11.378Z,100327.77
2018-10-11T21:54:39.772Z,100323.56
2018-10-11T21:57:07.851Z,100330.78
2018-10-11T21:59:35.985Z,100335.00
2018-10-11T22:02:04.075Z,100333.14
2018-10-11T22:04:32.186Z,100323.66
2018-10-11T22:07:00.278Z,100332.51
2018-10-11T22:09:28.366Z,100330.58
2018-10-11T22:11:56.462Z,100328.47
2018-10-11T22:14:24.804Z,100330.82
2018-10-11T22:16:52.843Z,100334.55
2018-10-11T22:19:20.931Z,100324.97
2018-10-11T22:21:49.026Z,100334.16
2018-10-11T22:24:17.201Z,100339.25
2018-10-11T22:26:45.291Z,100341.21
2018-10-11T22:29:13.370Z,100342.20
2018-10-11T22:31:41.467Z,100343.07
2018-10-11T22:34:09.566Z,100344.58
2018-10-11T22:36:37.669Z,100345.56
2018-10-11T22:39:08.206Z,100344.50
2018-10-11T22:41:36.740Z,100340.89
2018-10-11T22:44:04.838Z,100343.87
2018-10-11T22:46:32.944Z,100353.06
2018-10-11T22:49:01.037Z,100357.66
2018-10-11T22:51:29.186Z,100351.20
2018-10-11T22:53:57.270Z,100345.73
2018-10-11T22:56:25.358Z,100355.80
2018-10-11T22:58:53.943Z,100354.43
2018-10-11T23:01:22.351Z,100357.77
2018-10-11T23:03:50.436Z,100350.14
2018-10-11T23:06:18.521Z,100350.77
2018-10-11T23:08:46.621Z,100352.84
2018-10-11T23:11:14.715Z,100353.89
2018-10-11T23:13:42.811Z,100360.09
2018-10-11T23:16:11.480Z,100364.30
2018-10-11T23:18:40.483Z,100358.16
2018-10-11T23:21:08.567Z,100360.63
2018-10-11T23:23:36.661Z,100364.50
2018-10-11T23:26:04.787Z,100368.45
2018-10-11T23:28:32.876Z,100379.01
2018-10-11T23:31:00.963Z,100372.27
2018-10-11T23:33:29.064Z,100366.91
2018-10-11T23:35:57.143Z,100374.37
2018-10-11T23:38:25.235Z,100380.04
2018-10-11T23:40:53.492Z,100372.91
2018-10-11T23:43:21.590Z,100379.85
2018-10-11T23:45:49.680Z,100379.20
2018-10-11T23:48:17.768Z,100388.59
2018-10-11T23:50:45.835Z,100392.92
2018-10-11T23:53:13.926Z,100395.27
2018-10-11T23:55:41.996Z,100399.37
2018-10-11T23:58:10.073Z,100403.09
